Hailar, China
Current Conditions -  °F | °C
As of 1:00 AM on Saturday 20 Dec 2014 (Local Time) from UIAA Reporting Station
Scattered Clouds Scattered Clouds  
Wind Chill: -9°   Ceiling: Unl
Heat Index: -9°   Visibility: 6mi
Dew Point: -15°   Wind: 2mph
Humidity: 77%   Direction: NA
Pressure: 30.15"   Gusts: NA
Location:  49.23°N, 119.71°E
Report Text: UIAA 191700Z VRB01MPS 9000 SCT100 M23/M26 Q1021 NOSIG RMKQFE707 29CLRD70
Loading
Personal Weather Stations






























Interactive Weather Map New forecast layout! Learn more

10-Day Weather Forecast

Advertisements
Track Severe Weather on mobile